sensor_id;sensor_type;location;lat;lon;timestamp;pressure;altitude;pressure_sealevel;temperature;humidity
56334;BME280;42240;53.626;55.886;2023-04-01T00:00:40;76726.84;;;-145.10;100.00
56334;BME280;42240;53.626;55.886;2023-04-01T00:02:13;76722.91;;;-145.10;100.00
56334;BME280;42240;53.626;55.886;2023-04-01T00:03:46;76726.84;;;-145.10;100.00
56334;BME280;42240;53.626;55.886;2023-04-01T00:05:19;76720.94;;;-145.10;100.00
56334;BME280;42240;53.626;55.886;2023-04-01T00:06:52;76722.91;;;-145.10;100.00
56334;BME280;42240;53.626;55.886;2023-04-01T00:08:25;76738.72;;;-145.10;100.00
56334;BME280;42240;53.626;55.886;2023-04-01T00:09:58;76738.72;;;-145.10;100.00
56334;BME280;42240;53.626;55.886;2023-04-01T00:11:32;76728.84;;;-145.10;100.00
56334;BME280;42240;53.626;55.886;2023-04-01T00:13:04;76738.72;;;-145.10;100.00
56334;BME280;42240;53.626;55.886;2023-04-01T00:14:37;76734.78;;;-145.10;100.00
56334;BME280;42240;53.626;55.886;2023-04-01T00:16:12;76726.84;;;-145.10;100.00
56334;BME280;42240;53.626;55.886;2023-04-01T00:17:53;76718.94;;;-145.10;100.00
56334;BME280;42240;53.626;55.886;2023-04-01T00:19:26;76730.81;;;-145.10;100.00
56334;BME280;42240;53.626;55.886;2023-04-01T00:20:59;76732.78;;;-145.10;100.00
56334;BME280;42240;53.626;55.886;2023-04-01T00:22:32;76726.84;;;-145.10;100.00
56334;BME280;42240;53.626;55.886;2023-04-01T00:24:05;76715.00;;;-145.10;100.00
56334;BME280;42240;53.626;55.886;2023-04-01T00:25:38;76707.09;;;-145.10;100.00
56334;BME280;42240;53.626;55.886;2023-04-01T00:27:10;76720.94;;;-145.10;100.00
56334;BME280;42240;53.626;55.886;2023-04-01T00:28:43;76722.91;;;-145.10;100.00
56334;BME280;42240;53.626;55.886;2023-04-01T00:30:16;76718.94;;;-145.10;100.00
56334;BME280;42240;53.626;55.886;2023-04-01T00:31:50;76713.03;;;-145.10;100.00
56334;BME280;42240;53.626;55.886;2023-04-01T00:33:23;76715.00;;;-145.10;100.00
56334;BME280;42240;53.626;55.886;2023-04-01T00:34:56;76711.03;;;-145.10;100.00
56334;BME280;42240;53.626;55.886;2023-04-01T00:36:31;76709.06;;;-145.10;100.00
56334;BME280;42240;53.626;55.886;2023-04-01T00:38:04;76715.00;;;-145.10;100.00
56334;BME280;42240;53.626;55.886;2023-04-01T00:39:37;76697.19;;;-145.10;100.00
56334;BME280;42240;53.626;55.886;2023-04-01T00:41:11;76687.31;;;-145.10;100.00
56334;BME280;42240;53.626;55.886;2023-04-01T00:42:47;76679.41;;;-145.10;100.00
56334;BME280;42240;53.626;55.886;2023-04-01T00:44:21;76675.44;;;-145.10;100.00
56334;BME280;42240;53.626;55.886;2023-04-01T00:45:54;76671.50;;;-145.10;100.00
56334;BME280;42240;53.626;55.886;2023-04-01T00:47:27;76677.41;;;-145.10;100.00
56334;BME280;42240;53.626;55.886;2023-04-01T00:49:00;76703.13;;;-145.10;100.00
56334;BME280;42240;53.626;55.886;2023-04-01T00:50:34;76699.19;;;-145.10;100.00
56334;BME280;42240;53.626;55.886;2023-04-01T00:52:08;76709.06;;;-145.10;100.00
56334;BME280;42240;53.626;55.886;2023-04-01T00:53:44;76746.63;;;-145.10;100.00
56334;BME280;42240;53.626;55.886;2023-04-01T00:55:19;76707.09;;;-145.10;100.00
56334;BME280;42240;53.626;55.886;2023-04-01T00:56:54;76707.09;;;-145.10;100.00
56334;BME280;42240;53.626;55.886;2023-04-01T00:58:29;76703.13;;;-145.10;100.00
56334;BME280;42240;53.626;55.886;2023-04-01T01:00:06;76697.19;;;-145.10;100.00
56334;BME280;42240;53.626;55.886;2023-04-01T01:01:42;76703.13;;;-145.10;100.00
56334;BME280;42240;53.626;55.886;2023-04-01T01:03:15;76701.16;;;-145.10;100.00
56334;BME280;42240;53.626;55.886;2023-04-01T01:04:48;76695.22;;;-145.10;100.00
56334;BME280;42240;53.626;55.886;2023-04-01T01:08:52;76675.44;;;-145.10;100.00
56334;BME280;42240;53.626;55.886;2023-04-01T01:10:17;76677.41;;;-145.10;100.00
56334;BME280;42240;53.626;55.886;2023-04-01T01:17:12;76663.59;;;-145.10;100.00
56334;BME280;42240;53.626;55.886;2023-04-01T01:18:53;76667.53;;;-145.10;100.00
56334;BME280;42240;53.626;55.886;2023-04-01T01:25:32;76639.84;;;-145.10;100.00
56334;BME280;42240;53.626;55.886;2023-04-01T01:27:18;76641.81;;;-145.10;100.00
56334;BME280;42240;53.626;55.886;2023-04-01T01:32:10;76655.66;;;-145.10;100.00
56334;BME280;42240;53.626;55.886;2023-04-01T01:33:54;76659.63;;;-145.10;100.00
56334;BME280;42240;53.626;55.886;2023-04-01T01:35:37;76657.66;;;-145.10;100.00
56334;BME280;42240;53.626;55.886;2023-04-01T01:37:18;76657.66;;;-145.10;100.00
56334;BME280;42240;53.626;55.886;2023-04-01T01:38:53;76659.63;;;-145.10;100.00
56334;BME280;42240;53.626;55.886;2023-04-01T01:40:27;76667.53;;;-145.10;100.00
56334;BME280;42240;53.626;55.886;2023-04-01T01:42:03;76667.53;;;-145.10;100.00
56334;BME280;42240;53.626;55.886;2023-04-01T01:43:38;76655.66;;;-145.10;100.00
56334;BME280;42240;53.626;55.886;2023-04-01T01:45:12;76661.59;;;-145.10;100.00
56334;BME280;42240;53.626;55.886;2023-04-01T01:46:50;76659.63;;;-145.10;100.00
56334;BME280;42240;53.626;55.886;2023-04-01T01:48:24;76655.66;;;-145.10;100.00
56334;BME280;42240;53.626;55.886;2023-04-01T01:49:57;76649.75;;;-145.10;100.00
56334;BME280;42240;53.626;55.886;2023-04-01T01:51:31;76643.81;;;-145.10;100.00
56334;BME280;42240;53.626;55.886;2023-04-01T01:53:08;76647.75;;;-145.10;100.00
56334;BME280;42240;53.626;55.886;2023-04-01T01:54:52;76649.75;;;-145.10;100.00
56334;BME280;42240;53.626;55.886;2023-04-01T01:56:28;76649.75;;;-145.10;100.00
56334;BME280;42240;53.626;55.886;2023-04-01T01:59:43;76667.53;;;-145.10;100.00
56334;BME280;42240;53.626;55.886;2023-04-01T02:01:26;76699.19;;;-145.10;100.00
56334;BME280;42240;53.626;55.886;2023-04-01T02:03:05;76711.03;;;-145.10;100.00
56334;BME280;42240;53.626;55.886;2023-04-01T02:04:39;76716.97;;;-145.10;100.00
56334;BME280;42240;53.626;55.886;2023-04-01T02:06:14;76716.97;;;-145.10;100.00
56334;BME280;42240;53.626;55.886;2023-04-01T02:07:49;76703.13;;;-145.10;100.00
56334;BME280;42240;53.626;55.886;2023-04-01T02:09:27;76693.25;;;-145.10;100.00
56334;BME280;42240;53.626;55.886;2023-04-01T02:11:03;76687.31;;;-145.10;100.00
56334;BME280;42240;53.626;55.886;2023-04-01T02:12:42;76683.34;;;-145.10;100.00
56334;BME280;42240;53.626;55.886;2023-04-01T02:14:26;76677.41;;;-145.10;100.00
56334;BME280;42240;53.626;55.886;2023-04-01T02:16:02;76683.34;;;-145.10;100.00
56334;BME280;42240;53.626;55.886;2023-04-01T02:17:42;76677.41;;;-145.10;100.00
56334;BME280;42240;53.626;55.886;2023-04-01T02:19:16;76673.47;;;-145.10;100.00
56334;BME280;42240;53.626;55.886;2023-04-01T02:20:57;76669.50;;;-145.10;100.00
56334;BME280;42240;53.626;55.886;2023-04-01T02:22:35;76687.31;;;-145.10;100.00
56334;BME280;42240;53.626;55.886;2023-04-01T02:24:10;76689.28;;;-145.10;100.00
56334;BME280;42240;53.626;55.886;2023-04-01T02:25:44;76681.38;;;-145.10;100.00
56334;BME280;42240;53.626;55.886;2023-04-01T02:27:17;76675.44;;;-145.10;100.00
56334;BME280;42240;53.626;55.886;2023-04-01T02:28:52;76681.38;;;-145.10;100.00
56334;BME280;42240;53.626;55.886;2023-04-01T02:30:26;76669.50;;;-145.10;100.00
56334;BME280;42240;53.626;55.886;2023-04-01T02:32:01;76665.56;;;-145.10;100.00
56334;BME280;42240;53.626;55.886;2023-04-01T02:33:34;76661.59;;;-145.10;100.00
56334;BME280;42240;53.626;55.886;2023-04-01T02:35:09;76651.72;;;-145.10;100.00
56334;BME280;42240;53.626;55.886;2023-04-01T02:36:42;76671.50;;;-145.10;100.00
56334;BME280;42240;53.626;55.886;2023-04-01T02:38:16;76683.34;;;-145.10;100.00
56334;BME280;42240;53.626;55.886;2023-04-01T02:39:49;76695.22;;;-145.10;100.00
56334;BME280;42240;53.626;55.886;2023-04-01T02:41:22;76703.13;;;-145.10;100.00
56334;BME280;42240;53.626;55.886;2023-04-01T02:42:55;76705.09;;;-145.10;100.00
56334;BME280;42240;53.626;55.886;2023-04-01T02:44:28;76724.88;;;-145.10;100.00
56334;BME280;42240;53.626;55.886;2023-04-01T02:46:00;76718.94;;;-145.10;100.00
56334;BME280;42240;53.626;55.886;2023-04-01T02:47:34;76734.78;;;-145.10;100.00
56334;BME280;42240;53.626;55.886;2023-04-01T02:49:07;76728.84;;;-145.10;100.00
56334;BME280;42240;53.626;55.886;2023-04-01T02:50:40;76730.81;;;-145.10;100.00
56334;BME280;42240;53.626;55.886;2023-04-01T02:52:13;76718.94;;;-145.10;100.00
56334;BME280;42240;53.626;55.886;2023-04-01T02:53:45;76711.03;;;-145.10;100.00
56334;BME280;42240;53.626;55.886;2023-04-01T02:55:18;76722.91;;;-145.10;100.00
56334;BME280;42240;53.626;55.886;2023-04-01T02:56:51;76722.91;;;-145.10;100.00
56334;BME280;42240;53.626;55.886;2023-04-01T02:58:24;76715.00;;;-145.10;100.00
56334;BME280;42240;53.626;55.886;2023-04-01T02:59:57;76716.97;;;-145.10;100.00
56334;BME280;42240;53.626;55.886;2023-04-01T03:01:30;76736.75;;;-145.10;100.00
56334;BME280;42240;53.626;55.886;2023-04-01T03:03:02;76728.84;;;-145.10;100.00
56334;BME280;42240;53.626;55.886;2023-04-01T03:04:35;76726.84;;;-145.10;100.00
56334;BME280;42240;53.626;55.886;2023-04-01T03:06:10;76730.81;;;-145.10;100.00
56334;BME280;42240;53.626;55.886;2023-04-01T03:07:43;76724.88;;;-145.10;100.00
56334;BME280;42240;53.626;55.886;2023-04-01T03:09:18;76715.00;;;-145.10;100.00
56334;BME280;42240;53.626;55.886;2023-04-01T03:10:51;76703.13;;;-145.10;100.00
56334;BME280;42240;53.626;55.886;2023-04-01T03:12:23;76695.22;;;-145.10;100.00
56334;BME280;42240;53.626;55.886;2023-04-01T03:13:56;76711.03;;;-145.10;100.00
56334;BME280;42240;53.626;55.886;2023-04-01T03:15:30;76713.03;;;-145.10;100.00
56334;BME280;42240;53.626;55.886;2023-04-01T03:17:03;76703.13;;;-145.10;100.00
56334;BME280;42240;53.626;55.886;2023-04-01T03:18:35;76695.22;;;-145.10;100.00
56334;BME280;42240;53.626;55.886;2023-04-01T03:20:09;76687.31;;;-145.10;100.00
56334;BME280;42240;53.626;55.886;2023-04-01T03:21:43;76683.34;;;-145.10;100.00
56334;BME280;42240;53.626;55.886;2023-04-01T03:23:16;76683.34;;;-145.10;100.00
56334;BME280;42240;53.626;55.886;2023-04-01T03:24:51;76679.41;;;-145.10;100.00
56334;BME280;42240;53.626;55.886;2023-04-01T03:26:24;76679.41;;;-145.10;100.00
56334;BME280;42240;53.626;55.886;2023-04-01T03:27:59;76659.63;;;-145.10;100.00
56334;BME280;42240;53.626;55.886;2023-04-01T03:29:32;76673.47;;;-145.10;100.00
56334;BME280;42240;53.626;55.886;2023-04-01T03:31:05;76669.50;;;-145.10;100.00
56334;BME280;42240;53.626;55.886;2023-04-01T03:32:45;76667.53;;;-145.10;100.00
56334;BME280;42240;53.626;55.886;2023-04-01T03:34:18;76683.34;;;-145.10;100.00
56334;BME280;42240;53.626;55.886;2023-04-01T03:35:51;76687.31;;;-145.10;100.00
56334;BME280;42240;53.626;55.886;2023-04-01T03:37:24;76683.34;;;-145.10;100.00
56334;BME280;42240;53.626;55.886;2023-04-01T03:38:57;76663.59;;;-145.10;100.00
56334;BME280;42240;53.626;55.886;2023-04-01T03:40:41;76657.66;;;-145.10;100.00
56334;BME280;42240;53.626;55.886;2023-04-01T03:42:15;76657.66;;;-145.10;100.00
56334;BME280;42240;53.626;55.886;2023-04-01T03:43:48;76665.56;;;-145.10;100.00
56334;BME280;42240;53.626;55.886;2023-04-01T03:45:21;76653.69;;;-145.10;100.00
56334;BME280;42240;53.626;55.886;2023-04-01T03:46:54;76651.72;;;-145.10;100.00
56334;BME280;42240;53.626;55.886;2023-04-01T03:48:26;76651.72;;;-145.10;100.00
56334;BME280;42240;53.626;55.886;2023-04-01T03:49:59;76643.81;;;-145.10;100.00
56334;BME280;42240;53.626;55.886;2023-04-01T03:51:32;76649.75;;;-145.10;100.00
56334;BME280;42240;53.626;55.886;2023-04-01T03:53:05;76628.00;;;-145.10;100.00
56334;BME280;42240;53.626;55.886;2023-04-01T03:54:38;76626.00;;;-145.10;100.00
56334;BME280;42240;53.626;55.886;2023-04-01T03:56:11;76631.94;;;-145.10;100.00
56334;BME280;42240;53.626;55.886;2023-04-01T03:57:45;76637.88;;;-145.10;100.00
56334;BME280;42240;53.626;55.886;2023-04-01T03:59:22;76663.59;;;-145.10;100.00
56334;BME280;42240;53.626;55.886;2023-04-01T04:00:55;76659.63;;;-145.10;100.00
56334;BME280;42240;53.626;55.886;2023-04-01T04:02:28;76647.75;;;-145.10;100.00
56334;BME280;42240;53.626;55.886;2023-04-01T04:04:02;76631.94;;;-145.10;100.00
56334;BME280;42240;53.626;55.886;2023-04-01T04:05:34;76604.25;;;-145.10;100.00
56334;BME280;42240;53.626;55.886;2023-04-01T04:07:08;76586.47;;;-145.10;100.00
56334;BME280;42240;53.626;55.886;2023-04-01T04:09:00;76580.53;;;-145.10;100.00
56334;BME280;42240;53.626;55.886;2023-04-01T04:10:35;76574.59;;;-145.10;100.00
56334;BME280;42240;53.626;55.886;2023-04-01T04:12:08;76556.81;;;-145.10;100.00
56334;BME280;42240;53.626;55.886;2023-04-01T04:13:40;76552.84;;;-145.10;100.00
56334;BME280;42240;53.626;55.886;2023-04-01T04:15:14;76550.88;;;-145.10;100.00
56334;BME280;42240;53.626;55.886;2023-04-01T04:16:47;76544.94;;;-145.10;100.00
56334;BME280;42240;53.626;55.886;2023-04-01T04:18:20;76542.97;;;-145.10;100.00
56334;BME280;42240;53.626;55.886;2023-04-01T04:19:53;76556.81;;;-145.10;100.00
56334;BME280;42240;53.626;55.886;2023-04-01T04:21:27;76552.84;;;-145.10;100.00
56334;BME280;42240;53.626;55.886;2023-04-01T04:23:00;76582.50;;;-145.10;100.00
56334;BME280;42240;53.626;55.886;2023-04-01T04:24:35;76529.13;;;-145.10;100.00
56334;BME280;42240;53.626;55.886;2023-04-01T04:26:14;76519.22;;;-145.10;100.00
56334;BME280;42240;53.626;55.886;2023-04-01T04:27:52;76503.41;;;-145.10;100.00
56334;BME280;42240;53.626;55.886;2023-04-01T04:29:25;76491.53;;;-145.10;100.00
56334;BME280;42240;53.626;55.886;2023-04-01T04:30:58;76501.44;;;-145.10;100.00
56334;BME280;42240;53.626;55.886;2023-04-01T04:32:31;76509.34;;;-145.10;100.00
56334;BME280;42240;53.626;55.886;2023-04-01T04:34:04;76523.19;;;-145.10;100.00
56334;BME280;42240;53.626;55.886;2023-04-01T04:35:40;76521.22;;;-145.10;100.00
56334;BME280;42240;53.626;55.886;2023-04-01T04:37:13;76513.28;;;-145.10;100.00
56334;BME280;42240;53.626;55.886;2023-04-01T04:38:46;76501.44;;;-145.10;100.00
56334;BME280;42240;53.626;55.886;2023-04-01T04:40:19;76505.38;;;-145.10;100.00
56334;BME280;42240;53.626;55.886;2023-04-01T04:41:51;76493.53;;;-145.10;100.00
56334;BME280;42240;53.626;55.886;2023-04-01T04:43:24;76491.53;;;-145.10;100.00
56334;BME280;42240;53.626;55.886;2023-04-01T04:44:57;76501.44;;;-145.10;100.00
56334;BME280;42240;53.626;55.886;2023-04-01T04:46:31;76521.22;;;-145.10;100.00
56334;BME280;42240;53.626;55.886;2023-04-01T04:48:14;76469.78;;;-145.10;100.00
56334;BME280;42240;53.626;55.886;2023-04-01T04:49:51;76450.03;;;-145.10;100.00
56334;BME280;42240;53.626;55.886;2023-04-01T04:51:25;76430.25;;;-145.10;100.00
56334;BME280;42240;53.626;55.886;2023-04-01T04:52:58;76430.25;;;-145.10;100.00
56334;BME280;42240;53.626;55.886;2023-04-01T04:54:31;76432.22;;;-145.10;100.00
56334;BME280;42240;53.626;55.886;2023-04-01T04:56:06;76426.28;;;-145.10;100.00
56334;BME280;42240;53.626;55.886;2023-04-01T04:57:48;76418.38;;;-145.10;100.00
56334;BME280;42240;53.626;55.886;2023-04-01T04:59:21;76414.44;;;-145.10;100.00
56334;BME280;42240;53.626;55.886;2023-04-01T05:01:05;76394.66;;;-145.10;100.00
56334;BME280;42240;53.626;55.886;2023-04-01T05:02:39;76368.94;;;-145.10;100.00
56334;BME280;42240;53.626;55.886;2023-04-01T05:04:12;76347.19;;;-145.10;100.00
56334;BME280;42240;53.626;55.886;2023-04-01T05:05:49;76343.25;;;-145.10;100.00
56334;BME280;42240;53.626;55.886;2023-04-01T05:07:22;76333.38;;;-145.10;100.00
56334;BME280;42240;53.626;55.886;2023-04-01T05:08:55;76341.28;;;-145.10;100.00
56334;BME280;42240;53.626;55.886;2023-04-01T05:10:29;76363.03;;;-145.10;100.00
56334;BME280;42240;53.626;55.886;2023-04-01T05:12:02;76347.19;;;-145.10;100.00
56334;BME280;42240;53.626;55.886;2023-04-01T05:13:53;76333.38;;;-145.10;100.00
56334;BME280;42240;53.626;55.886;2023-04-01T05:15:26;76285.91;;;-145.10;100.00
56334;BME280;42240;53.626;55.886;2023-04-01T05:16:59;76252.28;;;-145.10;100.00
56334;BME280;42240;53.626;55.886;2023-04-01T05:18:33;76230.53;;;-145.10;100.00
56334;BME280;42240;53.626;55.886;2023-04-01T05:20:06;76226.59;;;-145.10;100.00
56334;BME280;42240;53.626;55.886;2023-04-01T05:21:39;76240.44;;;-145.10;100.00
56334;BME280;42240;53.626;55.886;2023-04-01T05:23:12;76250.31;;;-145.10;100.00
56334;BME280;42240;53.626;55.886;2023-04-01T05:24:45;76250.31;;;-145.10;100.00
56334;BME280;42240;53.626;55.886;2023-04-01T05:26:18;76272.06;;;-145.10;100.00
56334;BME280;42240;53.626;55.886;2023-04-01T05:27:51;76262.19;;;-145.10;100.00
56334;BME280;42240;53.626;55.886;2023-04-01T05:29:24;76264.16;;;-145.10;100.00
56334;BME280;42240;53.626;55.886;2023-04-01T05:31:04;76264.16;;;-145.10;100.00
56334;BME280;42240;53.626;55.886;2023-04-01T05:32:44;76278.00;;;-145.10;100.00
56334;BME280;42240;53.626;55.886;2023-04-01T05:34:17;76256.25;;;-145.10;100.00
56334;BME280;42240;53.626;55.886;2023-04-01T05:35:49;76268.13;;;-145.10;100.00
56334;BME280;42240;53.626;55.886;2023-04-01T05:37:22;76260.22;;;-145.10;100.00
56334;BME280;42240;53.626;55.886;2023-04-01T05:38:55;76244.38;;;-145.10;100.00
56334;BME280;42240;53.626;55.886;2023-04-01T05:40:31;76220.66;;;-145.10;100.00
56334;BME280;42240;53.626;55.886;2023-04-01T05:42:07;76191.00;;;-145.10;100.00
56334;BME280;42240;53.626;55.886;2023-04-01T05:43:41;76149.47;;;-145.10;100.00
56334;BME280;42240;53.626;55.886;2023-04-01T05:45:53;76105.97;;;-145.10;100.00
56334;BME280;42240;53.626;55.886;2023-04-01T05:47:54;76090.16;;;-145.10;100.00
56334;BME280;42240;53.626;55.886;2023-04-01T05:49:27;76042.72;;;-145.10;100.00
56334;BME280;42240;53.626;55.886;2023-04-01T05:51:00;75959.69;;;-145.10;100.00
56334;BME280;42240;53.626;55.886;2023-04-01T05:52:33;75943.88;;;-145.10;100.00
56334;BME280;42240;53.626;55.886;2023-04-01T05:54:06;75928.03;;;-145.10;100.00
56334;BME280;42240;53.626;55.886;2023-04-01T05:55:39;75989.34;;;-145.10;100.00
56334;BME280;42240;53.626;55.886;2023-04-01T05:57:13;76003.16;;;-145.10;100.00
56334;BME280;42240;53.626;55.886;2023-04-01T05:58:46;76046.66;;;-145.10;100.00
56334;BME280;42240;53.626;55.886;2023-04-01T06:00:23;76066.44;;;-145.10;100.00
56334;BME280;42240;53.626;55.886;2023-04-01T06:01:56;76125.75;;;-145.10;100.00
56334;BME280;42240;53.626;55.886;2023-04-01T06:03:31;76161.34;;;-145.10;100.00
56334;BME280;42240;53.626;55.886;2023-04-01T06:05:15;76175.19;;;-145.10;100.00
56334;BME280;42240;53.626;55.886;2023-04-01T06:06:49;76196.94;;;-145.10;100.00
56334;BME280;42240;53.626;55.886;2023-04-01T06:08:23;76216.72;;;-145.10;100.00
56334;BME280;42240;53.626;55.886;2023-04-01T06:09:56;76248.34;;;-145.10;100.00
56334;BME280;42240;53.626;55.886;2023-04-01T06:13:26;76232.53;;;-145.10;100.00
56334;BME280;42240;53.626;55.886;2023-04-01T06:15:13;76228.56;;;-145.10;100.00
56334;BME280;42240;53.626;55.886;2023-04-01T06:31:44;76139.59;;;-145.10;100.00
56334;BME280;42240;53.626;55.886;2023-04-01T06:38:33;76078.31;;;-145.10;100.00
56334;BME280;42240;53.626;55.886;2023-04-01T06:40:18;76070.41;;;-145.10;100.00
56334;BME280;42240;53.626;55.886;2023-04-01T06:43:45;76149.47;;;-145.10;100.00
56334;BME280;42240;53.626;55.886;2023-04-01T06:47:23;76076.31;;;-145.10;100.00
56334;BME280;42240;53.626;55.886;2023-04-01T06:51:26;76052.59;;;-145.10;100.00
56334;BME280;42240;53.626;55.886;2023-04-01T06:55:41;76036.78;;;-145.10;100.00
56334;BME280;42240;53.626;55.886;2023-04-01T06:57:43;76022.94;;;-145.10;100.00
56334;BME280;42240;53.626;55.886;2023-04-01T06:59:19;75979.44;;;-145.10;100.00
56334;BME280;42240;53.626;55.886;2023-04-01T07:00:56;75995.25;;;-145.10;100.00
56334;BME280;42240;53.626;55.886;2023-04-01T07:02:37;75965.59;;;-145.10;98.94
56334;BME280;42240;53.626;55.886;2023-04-01T07:05:45;75892.47;;;-145.10;99.47
56334;BME280;42240;53.626;55.886;2023-04-01T07:09:16;75862.81;;;-145.10;97.99
56334;BME280;42240;53.626;55.886;2023-04-01T07:11:10;75860.81;;;-145.10;94.87
56334;BME280;42240;53.626;55.886;2023-04-01T07:13:09;75801.50;;;-145.10;96.30
56334;BME280;42240;53.626;55.886;2023-04-01T07:14:56;75793.59;;;-145.10;89.83
56334;BME280;42240;53.626;55.886;2023-04-01T07:16:32;75789.66;;;-145.10;84.80
56334;BME280;42240;53.626;55.886;2023-04-01T07:18:11;75765.94;;;-145.10;84.48
56334;BME280;42240;53.626;55.886;2023-04-01T07:21:47;75773.84;;;-145.10;78.70
56334;BME280;42240;53.626;55.886;2023-04-01T07:23:32;75785.69;;;-145.10;77.12
56334;BME280;42240;53.626;55.886;2023-04-01T07:25:39;75789.66;;;-145.10;73.13
56334;BME280;42240;53.626;55.886;2023-04-01T07:27:43;75789.66;;;-145.10;70.86
56334;BME280;42240;53.626;55.886;2023-04-01T07:29:17;75819.31;;;-145.10;71.03
56334;BME280;42240;53.626;55.886;2023-04-01T07:32:50;75876.63;;;-145.10;72.00
56334;BME280;42240;53.626;55.886;2023-04-01T07:34:41;75860.81;;;-145.10;74.38
56334;BME280;42240;53.626;55.886;2023-04-01T07:48:26;75884.56;;;-145.10;77.92
56334;BME280;42240;53.626;55.886;2023-04-01T07:50:18;75890.47;;;-145.10;80.73
56334;BME280;42240;53.626;55.886;2023-04-01T07:56:05;75892.47;;;-145.10;75.82
56334;BME280;42240;53.626;55.886;2023-04-01T07:57:52;75884.56;;;-145.10;79.00
56334;BME280;42240;53.626;55.886;2023-04-01T07:59:46;75876.63;;;-145.10;77.60
56334;BME280;42240;53.626;55.886;2023-04-01T08:01:38;75878.63;;;-145.10;81.63
56334;BME280;42240;53.626;55.886;2023-04-01T08:05:00;75817.31;;;-145.10;78.00
56334;BME280;42240;53.626;55.886;2023-04-01T08:06:37;75833.16;;;-145.10;75.19
56334;BME280;42240;53.626;55.886;2023-04-01T08:08:25;75827.22;;;-145.10;75.07
56334;BME280;42240;53.626;55.886;2023-04-01T08:14:56;75787.69;;;-145.10;74.76
56334;BME280;42240;53.626;55.886;2023-04-01T08:18:39;75742.19;;;-145.10;74.88
56334;BME280;42240;53.626;55.886;2023-04-01T08:22:03;75754.06;;;-145.10;73.29
56334;BME280;42240;53.626;55.886;2023-04-01T08:23:46;75742.19;;;-145.10;71.72
56334;BME280;42240;53.626;55.886;2023-04-01T08:25:26;75761.97;;;-145.10;71.80
56334;BME280;42240;53.626;55.886;2023-04-01T08:27:01;75742.19;;;-145.10;73.92
56334;BME280;42240;53.626;55.886;2023-04-01T08:28:40;75779.75;;;-145.10;75.63
56334;BME280;42240;53.626;55.886;2023-04-01T08:30:20;75775.81;;;-145.10;75.40
56334;BME280;42240;53.626;55.886;2023-04-01T08:32:03;75754.06;;;-145.10;72.09
56334;BME280;42240;53.626;55.886;2023-04-01T08:33:38;75750.13;;;-145.10;71.58
56334;BME280;42240;53.626;55.886;2023-04-01T08:35:23;75754.06;;;-145.10;72.41
56334;BME280;42240;53.626;55.886;2023-04-01T08:37:11;75758.03;;;-145.10;70.56
56334;BME280;42240;53.626;55.886;2023-04-01T08:38:49;75746.16;;;-145.10;71.89
56334;BME280;42240;53.626;55.886;2023-04-01T08:42:16;75718.47;;;-145.10;74.51
56334;BME280;42240;53.626;55.886;2023-04-01T08:47:48;75726.38;;;-145.10;72.01
56334;BME280;42240;53.626;55.886;2023-04-01T08:53:40;75710.56;;;-145.10;68.12
56334;BME280;42240;53.626;55.886;2023-04-01T08:56:38;75700.69;;;-145.10;67.81
56334;BME280;42240;53.626;55.886;2023-04-01T08:58:25;75710.56;;;-145.10;65.86
56334;BME280;42240;53.626;55.886;2023-04-01T09:00:32;75678.94;;;-145.10;65.69
56334;BME280;42240;53.626;55.886;2023-04-01T09:07:43;75647.31;;;-145.10;64.88
56334;BME280;42240;53.626;55.886;2023-04-01T09:19:43;75726.38;;;-145.10;64.51
56334;BME280;42240;53.626;55.886;2023-04-01T09:21:37;75712.56;;;-145.10;63.86
56334;BME280;42240;53.626;55.886;2023-04-01T09:29:51;75730.34;;;-145.10;65.53
56334;BME280;42240;53.626;55.886;2023-04-01T09:31:43;75746.16;;;-145.10;67.00
56334;BME280;42240;53.626;55.886;2023-04-01T09:43:16;75793.59;;;-145.10;71.10
56334;BME280;42240;53.626;55.886;2023-04-01T09:44:58;75813.38;;;-145.10;70.74
56334;BME280;42240;53.626;55.886;2023-04-01T09:55:28;75815.34;;;-145.10;72.21
56334;BME280;42240;53.626;55.886;2023-04-01T10:01:43;75801.50;;;-145.10;70.91
56334;BME280;42240;53.626;55.886;2023-04-01T10:03:40;75787.69;;;-145.10;70.36
56334;BME280;42240;53.626;55.886;2023-04-01T10:09:02;75805.47;;;-145.10;74.31
56334;BME280;42240;53.626;55.886;2023-04-01T10:11:30;75799.53;;;-145.10;75.31
56334;BME280;42240;53.626;55.886;2023-04-01T10:14:33;75811.41;;;-145.10;75.15
56334;BME280;42240;53.626;55.886;2023-04-01T10:18:25;75839.06;;;-145.10;74.93
56334;BME280;42240;53.626;55.886;2023-04-01T10:51:00;75815.34;;;-145.10;78.88
56334;BME280;42240;53.626;55.886;2023-04-01T10:56:38;75791.63;;;-145.10;74.61
56334;BME280;42240;53.626;55.886;2023-04-01T11:02:57;75789.66;;;-145.10;77.08
56334;BME280;42240;53.626;55.886;2023-04-01T11:14:48;75813.38;;;-145.10;76.04
56334;BME280;42240;53.626;55.886;2023-04-01T11:25:04;75831.16;;;-145.10;83.83
56334;BME280;42240;53.626;55.886;2023-04-01T11:35:54;75918.16;;;-145.10;94.61
56334;BME280;42240;53.626;55.886;2023-04-01T11:37:33;75932.00;;;-145.10;95.28
56334;BME280;42240;53.626;55.886;2023-04-01T11:39:41;75959.69;;;-145.10;96.47
56334;BME280;42240;53.626;55.886;2023-04-01T11:46:15;76038.75;;;-145.10;100.00
56334;BME280;42240;53.626;55.886;2023-04-01T11:58:15;75971.53;;;-145.10;98.58
56334;BME280;42240;53.626;55.886;2023-04-01T12:00:00;75957.69;;;-145.10;97.20